createdAt,value
2023-02-11T00:00:50.879Z,60.13
2023-02-11T00:06:00.637Z,59.78
2023-02-11T00:11:05.464Z,61.27
2023-02-11T00:16:16.530Z,61.38
2023-02-11T00:21:23.304Z,61.56
2023-02-11T00:26:31.126Z,60.33
2023-02-11T00:31:36.835Z,60.03
2023-02-11T00:36:43.034Z,60.81
2023-02-11T00:41:47.323Z,60.66
2023-02-11T00:46:53.553Z,59.20
2023-02-11T00:52:00.571Z,59.36
2023-02-11T00:57:04.703Z,60.88
2023-02-11T01:02:10.200Z,62.13
2023-02-11T01:07:14.316Z,61.87
2023-02-11T01:12:18.340Z,61.04
2023-02-11T01:17:24.355Z,60.66
2023-02-11T01:22:28.631Z,61.88
2023-02-11T01:27:32.721Z,61.35
2023-02-11T01:32:38.215Z,59.74
2023-02-11T01:37:42.981Z,61.24
2023-02-11T01:42:48.874Z,61.91
2023-02-11T01:47:58.774Z,61.37
2023-02-11T01:53:24.255Z,60.90
2023-02-11T01:58:30.320Z,61.52
2023-02-11T02:03:39.087Z,61.32
2023-02-11T02:08:48.344Z,62.55
2023-02-11T02:13:52.431Z,62.69
2023-02-11T02:19:16.227Z,62.97
2023-02-11T02:24:56.727Z,63.23
2023-02-11T02:30:25.582Z,63.73
2023-02-11T02:35:41.768Z,63.13
2023-02-11T02:40:52.069Z,62.66
2023-02-11T02:45:56.391Z,62.04
2023-02-11T02:51:14.189Z,63.19
2023-02-11T02:56:27.519Z,62.12
2023-02-11T03:01:41.119Z,61.25
2023-02-11T03:06:53.988Z,60.86
2023-02-11T03:11:58.195Z,60.46
2023-02-11T03:17:06.231Z,61.07
2023-02-11T03:22:18.426Z,60.82
2023-02-11T03:27:27.025Z,60.12
2023-02-11T03:32:37.589Z,60.04
2023-02-11T03:37:50.348Z,60.00
2023-02-11T03:43:00.922Z,61.18
2023-02-11T03:48:13.742Z,61.24
2023-02-11T03:53:21.950Z,61.21
2023-02-11T03:58:26.287Z,61.29
2023-02-11T04:03:30.575Z,62.28
2023-02-11T04:08:35.945Z,62.25
2023-02-11T04:13:40.180Z,62.21
2023-02-11T04:18:44.301Z,61.84
2023-02-11T04:23:50.089Z,61.13
2023-02-11T04:28:54.068Z,60.72
2023-02-11T04:33:58.242Z,61.63
2023-02-11T04:39:04.498Z,61.27
2023-02-11T04:44:09.086Z,61.08
2023-02-11T04:49:14.745Z,61.19
2023-02-11T04:54:20.092Z,60.82
2023-02-11T04:59:24.177Z,61.91
2023-02-11T05:04:30.817Z,62.83
2023-02-11T05:09:36.468Z,59.76
2023-02-11T05:14:41.675Z,60.61
2023-02-11T05:19:45.746Z,60.20
2023-02-11T05:24:51.106Z,59.07
2023-02-11T05:29:55.125Z,59.15
2023-02-11T05:34:59.214Z,60.07
2023-02-11T05:40:06.579Z,60.86
2023-02-11T05:45:11.096Z,60.73
2023-02-11T05:50:15.317Z,59.99
2023-02-11T05:55:20.840Z,59.07
2023-02-11T06:00:25.321Z,60.08
2023-02-11T06:05:29.380Z,58.62
2023-02-11T06:10:34.898Z,57.46
2023-02-11T06:15:41.312Z,56.80
2023-02-11T06:20:45.921Z,57.14
2023-02-11T06:25:51.683Z,55.04
2023-02-11T06:30:55.937Z,52.35
2023-02-11T06:35:59.970Z,51.23
2023-02-11T06:41:07.318Z,49.98
2023-02-11T06:46:11.483Z,48.44
2023-02-11T06:51:17.243Z,46.27
2023-02-11T06:56:24.847Z,42.67
2023-02-11T07:01:29.807Z,39.65
2023-02-11T07:06:34.010Z,38.58
2023-02-11T07:11:39.654Z,38.16
2023-02-11T07:16:44.936Z,37.25
2023-02-11T07:21:49.855Z,32.77
2023-02-11T07:26:56.043Z,31.50
2023-02-11T07:32:00.687Z,30.07
2023-02-11T07:37:04.767Z,31.14
2023-02-11T07:42:10.164Z,31.01
2023-02-11T07:47:14.142Z,32.01
2023-02-11T07:52:18.159Z,30.65
2023-02-11T07:57:23.464Z,29.47
2023-02-11T08:02:27.747Z,29.08
2023-02-11T08:07:32.564Z,29.17
2023-02-11T08:12:37.977Z,29.76
2023-02-11T08:17:43.103Z,28.47
2023-02-11T08:22:49.085Z,28.60
2023-02-11T08:27:57.167Z,28.18
2023-02-11T08:33:01.561Z,29.10
2023-02-11T08:38:05.572Z,28.09
2023-02-11T08:43:11.483Z,26.86
2023-02-11T08:48:16.482Z,26.17
2023-02-11T08:53:20.622Z,25.58
2023-02-11T08:58:26.334Z,26.34
2023-02-11T09:03:30.874Z,27.31
2023-02-11T09:08:36.751Z,26.83
2023-02-11T09:13:44.606Z,27.21
2023-02-11T09:18:49.385Z,25.98
2023-02-11T09:23:54.267Z,25.00
2023-02-11T09:29:00.293Z,26.00
2023-02-11T09:34:06.922Z,26.32
2023-02-11T09:39:14.161Z,25.40
2023-02-11T09:44:23.968Z,23.73
2023-02-11T09:49:36.215Z,24.29
2023-02-11T09:54:51.400Z,24.66
2023-02-11T09:59:57.384Z,23.82
2023-02-11T10:05:23.893Z,22.29
2023-02-11T10:10:42.203Z,22.12
2023-02-11T10:15:53.514Z,21.41
2023-02-11T10:21:09.420Z,20.44
2023-02-11T10:26:16.056Z,19.61
2023-02-11T10:31:26.125Z,19.88
2023-02-11T10:36:37.348Z,20.71
2023-02-11T10:41:45.866Z,21.05
2023-02-11T10:46:53.486Z,20.84
2023-02-11T10:52:15.187Z,21.92
2023-02-11T10:57:21.234Z,21.56
2023-02-11T11:02:32.278Z,21.47
2023-02-11T11:07:37.725Z,20.97
2023-02-11T11:12:49.796Z,21.41
2023-02-11T11:18:21.516Z,21.37
2023-02-11T11:23:27.512Z,21.25
2023-02-11T11:28:39.004Z,20.62
2023-02-11T11:33:45.760Z,20.50
2023-02-11T11:38:53.707Z,20.62
2023-02-11T11:44:04.780Z,19.55
2023-02-11T11:49:22.620Z,20.45
2023-02-11T11:54:29.387Z,20.26
2023-02-11T11:59:33.545Z,19.72
2023-02-11T12:05:00.129Z,19.83
2023-02-11T12:10:36.134Z,20.96
2023-02-11T12:15:51.072Z,20.07
2023-02-11T12:21:13.533Z,20.25
2023-02-11T12:26:21.688Z,20.88
2023-02-11T12:31:35.577Z,22.03
2023-02-11T12:36:58.059Z,22.39
2023-02-11T12:42:48.349Z,22.56
2023-02-11T12:48:06.662Z,22.82
2023-02-11T12:53:34.841Z,23.42
2023-02-11T12:58:45.373Z,23.72
2023-02-11T13:03:54.740Z,23.78
2023-02-11T13:09:02.976Z,23.87
2023-02-11T13:14:14.127Z,24.61
2023-02-11T13:19:27.570Z,24.63
2023-02-11T13:24:44.347Z,24.89
2023-02-11T13:30:23.659Z,24.92
2023-02-11T13:35:30.246Z,25.61
2023-02-11T13:40:37.906Z,25.65
2023-02-11T13:45:47.216Z,25.60
2023-02-11T13:50:54.427Z,25.65
2023-02-11T13:56:11.400Z,25.71
2023-02-11T14:01:40.825Z,26.47
2023-02-11T14:07:45.277Z,26.99
2023-02-11T14:13:07.008Z,26.87
2023-02-11T14:18:39.184Z,26.57
2023-02-11T14:23:43.809Z,27.13
2023-02-11T14:28:52.345Z,27.15
2023-02-11T14:34:13.347Z,26.97
2023-02-11T14:39:27.062Z,27.83
2023-02-11T14:44:35.648Z,27.77
2023-02-11T14:49:41.479Z,28.73
2023-02-11T14:54:49.265Z,29.78
2023-02-11T14:59:59.179Z,29.91
2023-02-11T15:05:19.128Z,30.83
2023-02-11T15:10:31.504Z,31.13
2023-02-11T15:15:41.668Z,31.22
2023-02-11T15:20:46.827Z,31.24
2023-02-11T15:25:56.631Z,32.04
2023-02-11T15:31:05.565Z,32.66
2023-02-11T15:36:12.755Z,34.18
2023-02-11T15:41:36.967Z,35.18
2023-02-11T15:46:47.523Z,36.56
2023-02-11T15:51:52.123Z,36.87
2023-02-11T15:57:03.621Z,36.98
2023-02-11T16:02:18.853Z,36.42
2023-02-11T16:07:42.092Z,37.60
2023-02-11T16:12:53.507Z,39.04
2023-02-11T16:17:59.341Z,42.37
2023-02-11T16:23:05.124Z,44.04
2023-02-11T16:28:17.450Z,47.56
2023-02-11T16:33:23.727Z,46.39
2023-02-11T16:38:27.772Z,46.14
2023-02-11T16:43:31.793Z,48.29
2023-02-11T16:48:39.020Z,48.88
2023-02-11T16:53:43.222Z,50.54
2023-02-11T16:58:47.360Z,51.71
2023-02-11T17:03:54.149Z,53.33
2023-02-11T17:08:59.653Z,54.16
2023-02-11T17:14:03.859Z,54.01
2023-02-11T17:19:13.319Z,52.77
2023-02-11T17:24:18.226Z,54.84
2023-02-11T17:29:24.087Z,55.71
2023-02-11T17:34:29.642Z,56.74
2023-02-11T17:39:33.690Z,55.90
2023-02-11T17:44:37.689Z,56.14
2023-02-11T17:49:43.294Z,55.95
2023-02-11T17:54:47.363Z,55.55
2023-02-11T17:59:51.814Z,56.90
2023-02-11T18:04:58.947Z,57.37
2023-02-11T18:10:03.255Z,58.02
2023-02-11T18:15:08.897Z,59.14
2023-02-11T18:20:15.018Z,57.76
2023-02-11T18:25:20.154Z,56.88
2023-02-11T18:30:26.086Z,56.55
2023-02-11T18:35:31.680Z,57.92
2023-02-11T18:40:41.167Z,58.71
2023-02-11T18:45:45.741Z,59.38
2023-02-11T18:50:51.224Z,60.44
2023-02-11T18:55:55.721Z,59.42
2023-02-11T19:01:00.219Z,59.14
2023-02-11T19:06:06.251Z,59.22
2023-02-11T19:11:16.221Z,59.28
2023-02-11T19:16:21.560Z,58.67
2023-02-11T19:21:27.028Z,57.60
2023-02-11T19:26:31.365Z,59.04
2023-02-11T19:31:36.226Z,60.03
2023-02-11T19:36:42.039Z,61.83
2023-02-11T19:41:46.104Z,61.76
2023-02-11T19:46:53.478Z,62.97
2023-02-11T19:52:01.932Z,62.10
2023-02-11T19:57:06.031Z,61.37
2023-02-11T20:02:11.630Z,59.81
2023-02-11T20:07:17.341Z,60.01
2023-02-11T20:12:22.804Z,60.45
2023-02-11T20:17:26.851Z,61.10
2023-02-11T20:22:32.327Z,61.28
2023-02-11T20:27:36.424Z,61.27
2023-02-11T20:32:40.962Z,61.95
2023-02-11T20:37:46.335Z,62.23
2023-02-11T20:42:50.761Z,62.07
2023-02-11T20:47:55.545Z,62.14
2023-02-11T20:53:01.136Z,61.32
2023-02-11T20:58:05.935Z,61.47
2023-02-11T21:03:10.084Z,61.04
2023-02-11T21:08:15.914Z,62.07
2023-02-11T21:13:19.864Z,62.86
2023-02-11T21:18:25.361Z,63.60
2023-02-11T21:23:30.937Z,63.21
2023-02-11T21:28:35.485Z,62.25
2023-02-11T21:33:39.615Z,62.30
2023-02-11T21:38:45.029Z,62.17
2023-02-11T21:43:49.582Z,61.77
2023-02-11T21:48:53.578Z,62.03
2023-02-11T21:54:03.823Z,61.41
2023-02-11T21:59:07.851Z,61.80
2023-02-11T22:04:12.099Z,62.08
2023-02-11T22:09:17.645Z,63.13
2023-02-11T22:14:22.140Z,62.48
2023-02-11T22:19:26.147Z,63.62
2023-02-11T22:24:31.711Z,63.98
2023-02-11T22:29:35.997Z,63.99
2023-02-11T22:34:40.128Z,63.94
2023-02-11T22:39:45.570Z,63.55
2023-02-11T22:44:49.603Z,62.88
2023-02-11T22:49:53.646Z,63.32
2023-02-11T22:55:00.532Z,63.66
2023-02-11T23:00:09.855Z,62.61
2023-02-11T23:05:14.277Z,62.28
2023-02-11T23:10:20.186Z,61.83
2023-02-11T23:15:24.323Z,63.82
2023-02-11T23:20:28.474Z,62.83
2023-02-11T23:25:35.026Z,62.85
2023-02-11T23:30:39.668Z,62.95
2023-02-11T23:35:43.761Z,63.03
2023-02-11T23:40:51.699Z,63.10
2023-02-11T23:45:56.036Z,62.38
2023-02-11T23:51:00.162Z,64.02
2023-02-11T23:56:11.757Z,63.57
